sensor_id;sensor_type;location;lat;lon;timestamp;P1;durP1;ratioP1;P2;durP2;ratioP2
18445;SDS011;9352;50.888;4.466;2023-08-17T00:00:56;7.80;;;2.88;;
18445;SDS011;9352;50.888;4.466;2023-08-17T00:03:23;4.65;;;2.60;;
18445;SDS011;9352;50.888;4.466;2023-08-17T00:05:50;5.60;;;2.63;;
18445;SDS011;9352;50.888;4.466;2023-08-17T00:08:17;3.90;;;2.53;;
18445;SDS011;9352;50.888;4.466;2023-08-17T00:10:44;5.28;;;2.40;;
18445;SDS011;9352;50.888;4.466;2023-08-17T00:13:12;3.78;;;2.40;;
18445;SDS011;9352;50.888;4.466;2023-08-17T00:15:39;3.63;;;2.60;;
18445;SDS011;9352;50.888;4.466;2023-08-17T00:18:07;4.85;;;2.55;;
18445;SDS011;9352;50.888;4.466;2023-08-17T00:20:34;2.78;;;2.22;;
18445;SDS011;9352;50.888;4.466;2023-08-17T00:23:01;5.28;;;2.60;;
18445;SDS011;9352;50.888;4.466;2023-08-17T00:25:28;2.58;;;2.38;;
18445;SDS011;9352;50.888;4.466;2023-08-17T00:27:55;2.47;;;2.17;;
18445;SDS011;9352;50.888;4.466;2023-08-17T00:30:22;3.65;;;2.47;;
18445;SDS011;9352;50.888;4.466;2023-08-17T00:32:49;2.90;;;2.70;;
18445;SDS011;9352;50.888;4.466;2023-08-17T00:35:17;4.47;;;2.47;;
18445;SDS011;9352;50.888;4.466;2023-08-17T00:37:44;4.78;;;2.55;;
18445;SDS011;9352;50.888;4.466;2023-08-17T00:40:11;6.43;;;2.60;;
18445;SDS011;9352;50.888;4.466;2023-08-17T00:42:38;3.95;;;2.63;;
18445;SDS011;9352;50.888;4.466;2023-08-17T00:45:05;3.63;;;2.55;;
18445;SDS011;9352;50.888;4.466;2023-08-17T00:47:33;3.78;;;2.70;;
18445;SDS011;9352;50.888;4.466;2023-08-17T00:50:00;3.83;;;2.70;;
18445;SDS011;9352;50.888;4.466;2023-08-17T00:52:28;4.10;;;2.92;;
18445;SDS011;9352;50.888;4.466;2023-08-17T00:54:58;5.38;;;3.08;;
18445;SDS011;9352;50.888;4.466;2023-08-17T00:57:27;5.00;;;2.80;;
18445;SDS011;9352;50.888;4.466;2023-08-17T00:59:56;3.20;;;2.88;;
18445;SDS011;9352;50.888;4.466;2023-08-17T01:02:23;2.92;;;2.72;;
18445;SDS011;9352;50.888;4.466;2023-08-17T01:04:50;3.28;;;2.97;;
18445;SDS011;9352;50.888;4.466;2023-08-17T01:07:19;3.30;;;3.00;;
18445;SDS011;9352;50.888;4.466;2023-08-17T01:09:48;4.78;;;3.10;;
18445;SDS011;9352;50.888;4.466;2023-08-17T01:12:17;2.83;;;2.58;;
18445;SDS011;9352;50.888;4.466;2023-08-17T01:14:54;7.38;;;3.28;;
18445;SDS011;9352;50.888;4.466;2023-08-17T01:17:26;3.58;;;2.90;;
18445;SDS011;9352;50.888;4.466;2023-08-17T01:19:59;3.75;;;3.00;;
18445;SDS011;9352;50.888;4.466;2023-08-17T01:22:30;3.10;;;2.90;;
18445;SDS011;9352;50.888;4.466;2023-08-17T01:25:00;3.75;;;3.10;;
18445;SDS011;9352;50.888;4.466;2023-08-17T01:27:34;3.90;;;3.00;;
18445;SDS011;9352;50.888;4.466;2023-08-17T01:30:04;6.75;;;3.50;;
18445;SDS011;9352;50.888;4.466;2023-08-17T01:32:34;7.78;;;3.60;;
18445;SDS011;9352;50.888;4.466;2023-08-17T01:35:07;4.22;;;3.45;;
18445;SDS011;9352;50.888;4.466;2023-08-17T01:37:40;4.72;;;3.10;;
18445;SDS011;9352;50.888;4.466;2023-08-17T01:40:10;6.53;;;3.25;;
18445;SDS011;9352;50.888;4.466;2023-08-17T01:42:39;5.30;;;3.22;;
18445;SDS011;9352;50.888;4.466;2023-08-17T01:45:08;6.70;;;3.30;;
18445;SDS011;9352;50.888;4.466;2023-08-17T01:47:35;6.10;;;2.97;;
18445;SDS011;9352;50.888;4.466;2023-08-17T01:50:02;5.32;;;3.15;;
18445;SDS011;9352;50.888;4.466;2023-08-17T01:52:30;3.38;;;3.00;;
18445;SDS011;9352;50.888;4.466;2023-08-17T01:54:57;5.82;;;3.35;;
18445;SDS011;9352;50.888;4.466;2023-08-17T01:57:25;3.78;;;3.20;;
18445;SDS011;9352;50.888;4.466;2023-08-17T01:59:52;9.95;;;3.30;;
18445;SDS011;9352;50.888;4.466;2023-08-17T02:02:19;3.42;;;3.10;;
18445;SDS011;9352;50.888;4.466;2023-08-17T02:04:46;6.30;;;3.53;;
18445;SDS011;9352;50.888;4.466;2023-08-17T02:07:13;3.42;;;3.03;;
18445;SDS011;9352;50.888;4.466;2023-08-17T02:09:40;6.38;;;3.22;;
18445;SDS011;9352;50.888;4.466;2023-08-17T02:12:07;5.35;;;3.30;;
18445;SDS011;9352;50.888;4.466;2023-08-17T02:14:35;3.53;;;3.00;;
18445;SDS011;9352;50.888;4.466;2023-08-17T02:17:02;10.98;;;3.00;;
18445;SDS011;9352;50.888;4.466;2023-08-17T02:19:30;3.25;;;2.85;;
18445;SDS011;9352;50.888;4.466;2023-08-17T02:21:58;7.75;;;3.13;;
18445;SDS011;9352;50.888;4.466;2023-08-17T02:24:24;5.47;;;3.20;;
18445;SDS011;9352;50.888;4.466;2023-08-17T02:26:51;5.63;;;3.42;;
18445;SDS011;9352;50.888;4.466;2023-08-17T02:29:18;7.40;;;3.20;;
18445;SDS011;9352;50.888;4.466;2023-08-17T02:31:47;3.83;;;3.25;;
18445;SDS011;9352;50.888;4.466;2023-08-17T02:34:14;5.32;;;3.17;;
18445;SDS011;9352;50.888;4.466;2023-08-17T02:36:40;8.18;;;3.13;;
18445;SDS011;9352;50.888;4.466;2023-08-17T02:39:07;4.70;;;2.88;;
18445;SDS011;9352;50.888;4.466;2023-08-17T02:41:34;6.65;;;3.15;;
18445;SDS011;9352;50.888;4.466;2023-08-17T02:44:01;9.75;;;2.90;;
18445;SDS011;9352;50.888;4.466;2023-08-17T02:46:29;6.65;;;3.17;;
18445;SDS011;9352;50.888;4.466;2023-08-17T02:48:57;5.60;;;2.95;;
18445;SDS011;9352;50.888;4.466;2023-08-17T02:51:24;9.95;;;3.05;;
18445;SDS011;9352;50.888;4.466;2023-08-17T02:53:51;6.22;;;2.92;;
18445;SDS011;9352;50.888;4.466;2023-08-17T02:56:18;4.93;;;2.92;;
18445;SDS011;9352;50.888;4.466;2023-08-17T02:58:44;11.75;;;3.00;;
18445;SDS011;9352;50.888;4.466;2023-08-17T03:01:11;3.55;;;2.97;;
18445;SDS011;9352;50.888;4.466;2023-08-17T03:03:40;6.55;;;2.80;;
18445;SDS011;9352;50.888;4.466;2023-08-17T03:06:08;6.55;;;3.10;;
18445;SDS011;9352;50.888;4.466;2023-08-17T03:08:35;7.85;;;3.13;;
18445;SDS011;9352;50.888;4.466;2023-08-17T03:11:02;6.25;;;3.40;;
18445;SDS011;9352;50.888;4.466;2023-08-17T03:13:32;9.18;;;3.35;;
18445;SDS011;9352;50.888;4.466;2023-08-17T03:16:01;5.35;;;2.97;;
18445;SDS011;9352;50.888;4.466;2023-08-17T03:18:28;4.68;;;3.05;;
18445;SDS011;9352;50.888;4.466;2023-08-17T03:20:55;7.05;;;3.08;;
18445;SDS011;9352;50.888;4.466;2023-08-17T03:23:23;4.07;;;3.20;;
18445;SDS011;9352;50.888;4.466;2023-08-17T03:25:51;9.20;;;3.53;;
18445;SDS011;9352;50.888;4.466;2023-08-17T03:28:18;5.13;;;3.20;;
18445;SDS011;9352;50.888;4.466;2023-08-17T03:30:45;3.78;;;2.83;;
18445;SDS011;9352;50.888;4.466;2023-08-17T03:33:12;5.60;;;3.30;;
18445;SDS011;9352;50.888;4.466;2023-08-17T03:35:39;9.00;;;3.05;;
18445;SDS011;9352;50.888;4.466;2023-08-17T03:38:05;4.30;;;3.30;;
18445;SDS011;9352;50.888;4.466;2023-08-17T03:40:34;4.22;;;2.97;;
18445;SDS011;9352;50.888;4.466;2023-08-17T03:43:01;7.85;;;3.20;;
18445;SDS011;9352;50.888;4.466;2023-08-17T03:45:28;7.07;;;3.53;;
18445;SDS011;9352;50.888;4.466;2023-08-17T03:47:55;8.75;;;3.13;;
18445;SDS011;9352;50.888;4.466;2023-08-17T03:50:22;9.13;;;3.30;;
18445;SDS011;9352;50.888;4.466;2023-08-17T03:52:52;7.30;;;3.30;;
18445;SDS011;9352;50.888;4.466;2023-08-17T03:55:19;8.05;;;3.45;;
18445;SDS011;9352;50.888;4.466;2023-08-17T03:57:47;5.47;;;3.50;;
18445;SDS011;9352;50.888;4.466;2023-08-17T04:00:14;7.03;;;3.53;;
18445;SDS011;9352;50.888;4.466;2023-08-17T04:02:41;6.85;;;3.25;;
18445;SDS011;9352;50.888;4.466;2023-08-17T04:05:08;7.82;;;3.10;;
18445;SDS011;9352;50.888;4.466;2023-08-17T04:07:35;5.63;;;3.22;;
18445;SDS011;9352;50.888;4.466;2023-08-17T04:10:03;7.28;;;3.05;;
18445;SDS011;9352;50.888;4.466;2023-08-17T04:12:32;7.70;;;3.53;;
18445;SDS011;9352;50.888;4.466;2023-08-17T04:15:00;8.65;;;3.45;;
18445;SDS011;9352;50.888;4.466;2023-08-17T04:17:27;5.80;;;3.83;;
18445;SDS011;9352;50.888;4.466;2023-08-17T04:19:54;7.70;;;3.60;;
18445;SDS011;9352;50.888;4.466;2023-08-17T04:22:21;5.47;;;3.53;;
18445;SDS011;9352;50.888;4.466;2023-08-17T04:24:48;4.65;;;3.33;;
18445;SDS011;9352;50.888;4.466;2023-08-17T04:27:15;7.60;;;3.40;;
18445;SDS011;9352;50.888;4.466;2023-08-17T04:29:43;6.55;;;3.38;;
18445;SDS011;9352;50.888;4.466;2023-08-17T04:32:14;8.65;;;3.70;;
18445;SDS011;9352;50.888;4.466;2023-08-17T04:34:42;8.88;;;3.75;;
18445;SDS011;9352;50.888;4.466;2023-08-17T04:37:09;7.68;;;3.55;;
18445;SDS011;9352;50.888;4.466;2023-08-17T04:39:36;6.63;;;3.28;;
18445;SDS011;9352;50.888;4.466;2023-08-17T04:42:03;5.50;;;3.50;;
18445;SDS011;9352;50.888;4.466;2023-08-17T04:44:30;6.95;;;3.15;;
18445;SDS011;9352;50.888;4.466;2023-08-17T04:46:57;8.63;;;3.47;;
18445;SDS011;9352;50.888;4.466;2023-08-17T04:49:25;9.82;;;3.95;;
18445;SDS011;9352;50.888;4.466;2023-08-17T04:51:52;8.00;;;3.60;;
18445;SDS011;9352;50.888;4.466;2023-08-17T04:54:19;8.82;;;3.50;;
18445;SDS011;9352;50.888;4.466;2023-08-17T04:56:46;6.20;;;3.80;;
18445;SDS011;9352;50.888;4.466;2023-08-17T04:59:13;5.20;;;3.40;;
18445;SDS011;9352;50.888;4.466;2023-08-17T05:01:40;9.85;;;3.60;;
18445;SDS011;9352;50.888;4.466;2023-08-17T05:04:07;12.00;;;3.72;;
18445;SDS011;9352;50.888;4.466;2023-08-17T05:06:35;7.35;;;3.70;;
18445;SDS011;9352;50.888;4.466;2023-08-17T05:09:03;5.63;;;3.35;;
18445;SDS011;9352;50.888;4.466;2023-08-17T05:11:31;8.80;;;3.97;;
18445;SDS011;9352;50.888;4.466;2023-08-17T05:13:58;14.23;;;3.90;;
18445;SDS011;9352;50.888;4.466;2023-08-17T05:16:25;8.50;;;3.45;;
18445;SDS011;9352;50.888;4.466;2023-08-17T05:18:52;6.50;;;2.92;;
18445;SDS011;9352;50.888;4.466;2023-08-17T05:21:19;8.82;;;3.75;;
18445;SDS011;9352;50.888;4.466;2023-08-17T05:23:47;5.38;;;3.22;;
18445;SDS011;9352;50.888;4.466;2023-08-17T05:26:14;12.13;;;3.47;;
18445;SDS011;9352;50.888;4.466;2023-08-17T05:28:41;10.80;;;3.38;;
18445;SDS011;9352;50.888;4.466;2023-08-17T05:31:10;13.20;;;3.70;;
18445;SDS011;9352;50.888;4.466;2023-08-17T05:33:37;5.28;;;3.25;;
18445;SDS011;9352;50.888;4.466;2023-08-17T05:36:06;7.85;;;3.20;;
18445;SDS011;9352;50.888;4.466;2023-08-17T05:38:33;5.25;;;3.40;;
18445;SDS011;9352;50.888;4.466;2023-08-17T05:41:01;5.03;;;3.40;;
18445;SDS011;9352;50.888;4.466;2023-08-17T05:43:28;4.20;;;3.28;;
18445;SDS011;9352;50.888;4.466;2023-08-17T05:45:56;10.50;;;3.85;;
18445;SDS011;9352;50.888;4.466;2023-08-17T05:48:24;11.00;;;4.70;;
18445;SDS011;9352;50.888;4.466;2023-08-17T05:50:51;7.30;;;3.20;;
18445;SDS011;9352;50.888;4.466;2023-08-17T05:53:17;12.25;;;3.63;;
18445;SDS011;9352;50.888;4.466;2023-08-17T05:55:44;7.47;;;3.72;;
18445;SDS011;9352;50.888;4.466;2023-08-17T05:58:13;6.00;;;3.55;;
18445;SDS011;9352;50.888;4.466;2023-08-17T06:00:40;8.70;;;3.70;;
18445;SDS011;9352;50.888;4.466;2023-08-17T06:03:07;9.55;;;3.50;;
18445;SDS011;9352;50.888;4.466;2023-08-17T06:05:34;8.40;;;3.50;;
18445;SDS011;9352;50.888;4.466;2023-08-17T06:08:01;8.88;;;3.63;;
18445;SDS011;9352;50.888;4.466;2023-08-17T06:10:28;8.32;;;3.50;;
18445;SDS011;9352;50.888;4.466;2023-08-17T06:12:55;11.15;;;3.67;;
18445;SDS011;9352;50.888;4.466;2023-08-17T06:15:23;6.10;;;3.75;;
18445;SDS011;9352;50.888;4.466;2023-08-17T06:17:51;8.40;;;3.33;;
18445;SDS011;9352;50.888;4.466;2023-08-17T06:20:18;7.07;;;3.90;;
18445;SDS011;9352;50.888;4.466;2023-08-17T06:22:46;10.88;;;3.85;;
18445;SDS011;9352;50.888;4.466;2023-08-17T06:25:14;7.22;;;3.72;;
18445;SDS011;9352;50.888;4.466;2023-08-17T06:27:41;8.27;;;3.67;;
18445;SDS011;9352;50.888;4.466;2023-08-17T06:30:09;8.90;;;3.78;;
18445;SDS011;9352;50.888;4.466;2023-08-17T06:32:38;9.98;;;3.90;;
18445;SDS011;9352;50.888;4.466;2023-08-17T06:35:06;9.98;;;3.60;;
18445;SDS011;9352;50.888;4.466;2023-08-17T06:37:33;8.43;;;3.40;;
18445;SDS011;9352;50.888;4.466;2023-08-17T06:40:00;5.25;;;3.40;;
18445;SDS011;9352;50.888;4.466;2023-08-17T06:42:28;11.25;;;3.65;;
18445;SDS011;9352;50.888;4.466;2023-08-17T06:44:55;7.65;;;3.55;;
18445;SDS011;9352;50.888;4.466;2023-08-17T06:47:21;11.93;;;4.22;;
18445;SDS011;9352;50.888;4.466;2023-08-17T06:49:50;9.30;;;4.30;;
18445;SDS011;9352;50.888;4.466;2023-08-17T06:52:17;9.07;;;4.50;;
18445;SDS011;9352;50.888;4.466;2023-08-17T06:54:44;13.85;;;4.95;;
18445;SDS011;9352;50.888;4.466;2023-08-17T06:57:10;8.93;;;4.30;;
18445;SDS011;9352;50.888;4.466;2023-08-17T06:59:37;13.35;;;4.93;;
18445;SDS011;9352;50.888;4.466;2023-08-17T07:02:04;9.48;;;5.25;;
18445;SDS011;9352;50.888;4.466;2023-08-17T07:04:31;12.85;;;5.50;;
18445;SDS011;9352;50.888;4.466;2023-08-17T07:07:00;12.98;;;5.57;;
18445;SDS011;9352;50.888;4.466;2023-08-17T07:09:27;9.32;;;4.88;;
18445;SDS011;9352;50.888;4.466;2023-08-17T07:11:54;10.77;;;4.97;;
18445;SDS011;9352;50.888;4.466;2023-08-17T07:14:20;12.93;;;5.28;;
18445;SDS011;9352;50.888;4.466;2023-08-17T07:16:48;11.95;;;4.85;;
18445;SDS011;9352;50.888;4.466;2023-08-17T07:19:15;13.88;;;4.55;;
18445;SDS011;9352;50.888;4.466;2023-08-17T07:21:41;8.43;;;4.30;;
18445;SDS011;9352;50.888;4.466;2023-08-17T07:24:13;9.65;;;4.25;;
18445;SDS011;9352;50.888;4.466;2023-08-17T07:26:41;15.68;;;4.85;;
18445;SDS011;9352;50.888;4.466;2023-08-17T07:29:09;11.57;;;4.90;;
18445;SDS011;9352;50.888;4.466;2023-08-17T07:31:36;19.80;;;5.20;;
18445;SDS011;9352;50.888;4.466;2023-08-17T07:34:03;5.38;;;4.88;;
18445;SDS011;9352;50.888;4.466;2023-08-17T07:36:30;7.13;;;5.20;;
18445;SDS011;9352;50.888;4.466;2023-08-17T07:38:57;11.63;;;5.57;;
18445;SDS011;9352;50.888;4.466;2023-08-17T07:41:26;10.23;;;5.40;;
18445;SDS011;9352;50.888;4.466;2023-08-17T07:43:53;19.38;;;5.68;;
18445;SDS011;9352;50.888;4.466;2023-08-17T07:46:20;13.13;;;6.03;;
18445;SDS011;9352;50.888;4.466;2023-08-17T07:48:46;20.55;;;5.55;;
18445;SDS011;9352;50.888;4.466;2023-08-17T07:51:14;6.65;;;4.78;;
18445;SDS011;9352;50.888;4.466;2023-08-17T07:53:41;19.60;;;5.68;;
18445;SDS011;9352;50.888;4.466;2023-08-17T07:56:08;10.23;;;5.15;;
18445;SDS011;9352;50.888;4.466;2023-08-17T07:58:36;16.95;;;5.53;;
18445;SDS011;9352;50.888;4.466;2023-08-17T08:01:03;8.02;;;5.53;;
18445;SDS011;9352;50.888;4.466;2023-08-17T08:03:30;18.38;;;6.15;;
18445;SDS011;9352;50.888;4.466;2023-08-17T08:05:57;11.30;;;5.00;;
18445;SDS011;9352;50.888;4.466;2023-08-17T08:08:24;10.80;;;5.43;;
18445;SDS011;9352;50.888;4.466;2023-08-17T08:10:52;13.18;;;5.80;;
18445;SDS011;9352;50.888;4.466;2023-08-17T08:13:19;20.70;;;6.22;;
18445;SDS011;9352;50.888;4.466;2023-08-17T08:15:47;15.43;;;6.25;;
18445;SDS011;9352;50.888;4.466;2023-08-17T08:18:15;10.70;;;5.55;;
18445;SDS011;9352;50.888;4.466;2023-08-17T08:20:41;16.50;;;5.50;;
18445;SDS011;9352;50.888;4.466;2023-08-17T08:23:08;6.72;;;4.85;;
18445;SDS011;9352;50.888;4.466;2023-08-17T08:25:35;17.15;;;5.45;;
18445;SDS011;9352;50.888;4.466;2023-08-17T08:28:02;12.75;;;5.18;;
18445;SDS011;9352;50.888;4.466;2023-08-17T08:30:29;13.77;;;5.15;;
18445;SDS011;9352;50.888;4.466;2023-08-17T08:32:58;14.20;;;4.93;;
18445;SDS011;9352;50.888;4.466;2023-08-17T08:35:25;9.15;;;4.32;;
18445;SDS011;9352;50.888;4.466;2023-08-17T08:37:53;9.35;;;5.18;;
18445;SDS011;9352;50.888;4.466;2023-08-17T08:40:28;8.93;;;5.10;;
18445;SDS011;9352;50.888;4.466;2023-08-17T08:42:56;12.50;;;5.25;;
18445;SDS011;9352;50.888;4.466;2023-08-17T08:45:23;10.13;;;5.10;;
18445;SDS011;9352;50.888;4.466;2023-08-17T08:47:51;7.68;;;4.55;;
18445;SDS011;9352;50.888;4.466;2023-08-17T08:50:20;8.13;;;4.22;;
18445;SDS011;9352;50.888;4.466;2023-08-17T08:52:50;7.57;;;5.05;;
18445;SDS011;9352;50.888;4.466;2023-08-17T08:55:23;12.13;;;5.07;;
18445;SDS011;9352;50.888;4.466;2023-08-17T08:57:52;14.55;;;7.28;;
18445;SDS011;9352;50.888;4.466;2023-08-17T09:00:20;14.98;;;7.05;;
18445;SDS011;9352;50.888;4.466;2023-08-17T09:02:48;10.43;;;5.50;;
18445;SDS011;9352;50.888;4.466;2023-08-17T09:05:15;10.10;;;5.13;;
18445;SDS011;9352;50.888;4.466;2023-08-17T09:07:44;11.10;;;5.78;;
18445;SDS011;9352;50.888;4.466;2023-08-17T09:10:13;13.10;;;6.75;;
18445;SDS011;9352;50.888;4.466;2023-08-17T09:12:41;16.30;;;6.78;;
18445;SDS011;9352;50.888;4.466;2023-08-17T09:15:08;13.23;;;6.00;;
18445;SDS011;9352;50.888;4.466;2023-08-17T09:17:35;10.20;;;6.25;;
18445;SDS011;9352;50.888;4.466;2023-08-17T09:20:03;15.13;;;6.75;;
18445;SDS011;9352;50.888;4.466;2023-08-17T09:22:36;11.80;;;7.22;;
18445;SDS011;9352;50.888;4.466;2023-08-17T09:25:06;7.88;;;4.78;;
18445;SDS011;9352;50.888;4.466;2023-08-17T09:27:33;10.95;;;4.97;;
18445;SDS011;9352;50.888;4.466;2023-08-17T09:30:01;6.93;;;5.57;;
18445;SDS011;9352;50.888;4.466;2023-08-17T09:32:29;10.85;;;5.88;;
18445;SDS011;9352;50.888;4.466;2023-08-17T09:34:56;13.20;;;6.28;;
18445;SDS011;9352;50.888;4.466;2023-08-17T09:37:23;13.65;;;5.35;;
18445;SDS011;9352;50.888;4.466;2023-08-17T09:39:53;8.13;;;5.32;;
18445;SDS011;9352;50.888;4.466;2023-08-17T09:42:21;11.15;;;5.93;;
18445;SDS011;9352;50.888;4.466;2023-08-17T09:44:50;8.88;;;5.90;;
18445;SDS011;9352;50.888;4.466;2023-08-17T09:47:18;14.68;;;6.38;;
18445;SDS011;9352;50.888;4.466;2023-08-17T09:49:47;12.48;;;6.75;;
18445;SDS011;9352;50.888;4.466;2023-08-17T09:52:14;12.98;;;6.28;;
18445;SDS011;9352;50.888;4.466;2023-08-17T09:54:41;14.95;;;5.85;;
18445;SDS011;9352;50.888;4.466;2023-08-17T09:57:10;8.13;;;5.57;;
18445;SDS011;9352;50.888;4.466;2023-08-17T09:59:38;10.40;;;5.28;;
18445;SDS011;9352;50.888;4.466;2023-08-17T10:02:07;12.15;;;5.78;;
18445;SDS011;9352;50.888;4.466;2023-08-17T10:04:42;13.60;;;6.03;;
18445;SDS011;9352;50.888;4.466;2023-08-17T10:07:12;8.70;;;5.80;;
18445;SDS011;9352;50.888;4.466;2023-08-17T10:09:42;12.43;;;6.43;;
18445;SDS011;9352;50.888;4.466;2023-08-17T10:12:13;10.55;;;6.70;;
18445;SDS011;9352;50.888;4.466;2023-08-17T10:14:45;14.13;;;8.52;;
18445;SDS011;9352;50.888;4.466;2023-08-17T10:17:19;13.57;;;8.27;;
18445;SDS011;9352;50.888;4.466;2023-08-17T10:19:52;17.20;;;8.13;;
18445;SDS011;9352;50.888;4.466;2023-08-17T10:22:23;10.68;;;7.15;;
18445;SDS011;9352;50.888;4.466;2023-08-17T10:24:57;9.38;;;6.82;;
18445;SDS011;9352;50.888;4.466;2023-08-17T10:27:24;14.13;;;7.28;;
18445;SDS011;9352;50.888;4.466;2023-08-17T10:29:53;20.52;;;6.90;;
18445;SDS011;9352;50.888;4.466;2023-08-17T10:32:22;10.50;;;6.85;;
18445;SDS011;9352;50.888;4.466;2023-08-17T10:34:50;10.43;;;6.35;;
18445;SDS011;9352;50.888;4.466;2023-08-17T10:37:18;8.18;;;6.18;;
18445;SDS011;9352;50.888;4.466;2023-08-17T10:39:47;11.07;;;6.03;;
18445;SDS011;9352;50.888;4.466;2023-08-17T10:42:14;9.45;;;5.50;;
18445;SDS011;9352;50.888;4.466;2023-08-17T10:44:56;15.82;;;5.80;;
18445;SDS011;9352;50.888;4.466;2023-08-17T10:47:24;8.85;;;5.63;;
18445;SDS011;9352;50.888;4.466;2023-08-17T10:49:55;9.10;;;6.30;;
18445;SDS011;9352;50.888;4.466;2023-08-17T10:52:26;9.55;;;5.53;;
18445;SDS011;9352;50.888;4.466;2023-08-17T10:54:54;11.57;;;6.47;;
18445;SDS011;9352;50.888;4.466;2023-08-17T10:57:27;10.35;;;6.75;;
18445;SDS011;9352;50.888;4.466;2023-08-17T11:02:52;7.57;;;6.32;;
18445;SDS011;9352;50.888;4.466;2023-08-17T11:05:36;12.80;;;6.53;;
18445;SDS011;9352;50.888;4.466;2023-08-17T11:08:04;10.52;;;6.78;;
18445;SDS011;9352;50.888;4.466;2023-08-17T11:10:31;7.55;;;6.05;;
18445;SDS011;9352;50.888;4.466;2023-08-17T11:12:59;9.35;;;6.15;;
18445;SDS011;9352;50.888;4.466;2023-08-17T11:15:36;13.15;;;7.25;;
18445;SDS011;9352;50.888;4.466;2023-08-17T11:18:07;14.20;;;6.30;;
18445;SDS011;9352;50.888;4.466;2023-08-17T11:20:35;13.13;;;7.07;;
18445;SDS011;9352;50.888;4.466;2023-08-17T11:23:04;14.45;;;7.22;;
18445;SDS011;9352;50.888;4.466;2023-08-17T11:25:32;11.20;;;7.70;;
18445;SDS011;9352;50.888;4.466;2023-08-17T11:27:59;13.88;;;6.72;;
18445;SDS011;9352;50.888;4.466;2023-08-17T11:30:27;15.25;;;7.68;;
18445;SDS011;9352;50.888;4.466;2023-08-17T11:32:56;13.35;;;7.20;;
18445;SDS011;9352;50.888;4.466;2023-08-17T11:35:23;12.45;;;7.68;;
18445;SDS011;9352;50.888;4.466;2023-08-17T11:37:49;11.38;;;7.53;;
18445;SDS011;9352;50.888;4.466;2023-08-17T11:40:17;16.35;;;8.15;;
18445;SDS011;9352;50.888;4.466;2023-08-17T11:42:44;14.80;;;7.57;;
18445;SDS011;9352;50.888;4.466;2023-08-17T11:45:12;13.30;;;7.13;;
18445;SDS011;9352;50.888;4.466;2023-08-17T11:47:39;13.52;;;7.38;;
18445;SDS011;9352;50.888;4.466;2023-08-17T11:50:09;10.50;;;7.30;;
18445;SDS011;9352;50.888;4.466;2023-08-17T11:52:37;18.35;;;7.68;;
18445;SDS011;9352;50.888;4.466;2023-08-17T11:55:05;16.73;;;7.22;;
18445;SDS011;9352;50.888;4.466;2023-08-17T11:57:33;13.07;;;7.35;;
18445;SDS011;9352;50.888;4.466;2023-08-17T12:00:01;13.02;;;7.93;;
18445;SDS011;9352;50.888;4.466;2023-08-17T12:02:31;20.95;;;8.18;;
18445;SDS011;9352;50.888;4.466;2023-08-17T12:05:02;22.98;;;8.27;;
18445;SDS011;9352;50.888;4.466;2023-08-17T12:07:32;18.50;;;9.10;;
18445;SDS011;9352;50.888;4.466;2023-08-17T12:09:59;26.67;;;8.85;;
18445;SDS011;9352;50.888;4.466;2023-08-17T12:12:28;22.70;;;9.07;;
18445;SDS011;9352;50.888;4.466;2023-08-17T12:14:56;12.95;;;9.00;;
18445;SDS011;9352;50.888;4.466;2023-08-17T12:17:23;18.05;;;9.60;;
18445;SDS011;9352;50.888;4.466;2023-08-17T12:19:53;12.65;;;8.93;;
18445;SDS011;9352;50.888;4.466;2023-08-17T12:22:23;16.35;;;9.82;;
18445;SDS011;9352;50.888;4.466;2023-08-17T12:24:52;15.55;;;9.32;;
18445;SDS011;9352;50.888;4.466;2023-08-17T12:27:21;19.13;;;10.40;;
18445;SDS011;9352;50.888;4.466;2023-08-17T12:29:50;16.42;;;10.48;;
18445;SDS011;9352;50.888;4.466;2023-08-17T12:32:18;20.13;;;10.77;;
18445;SDS011;9352;50.888;4.466;2023-08-17T12:34:46;18.10;;;9.45;;
18445;SDS011;9352;50.888;4.466;2023-08-17T12:37:17;22.63;;;11.40;;
18445;SDS011;9352;50.888;4.466;2023-08-17T12:39:45;26.52;;;11.05;;
18445;SDS011;9352;50.888;4.466;2023-08-17T12:42:14;19.33;;;10.23;;
18445;SDS011;9352;50.888;4.466;2023-08-17T12:44:41;16.92;;;9.82;;
18445;SDS011;9352;50.888;4.466;2023-08-17T12:47:08;20.25;;;10.50;;
18445;SDS011;9352;50.888;4.466;2023-08-17T12:49:36;23.27;;;11.32;;
18445;SDS011;9352;50.888;4.466;2023-08-17T12:52:03;20.27;;;10.02;;
18445;SDS011;9352;50.888;4.466;2023-08-17T12:54:30;16.90;;;10.32;;
18445;SDS011;9352;50.888;4.466;2023-08-17T12:56:57;22.85;;;10.80;;
18445;SDS011;9352;50.888;4.466;2023-08-17T12:59:25;18.42;;;10.60;;
18445;SDS011;9352;50.888;4.466;2023-08-17T13:01:52;21.17;;;12.35;;
18445;SDS011;9352;50.888;4.466;2023-08-17T13:04:19;21.75;;;11.07;;
18445;SDS011;9352;50.888;4.466;2023-08-17T13:06:46;22.90;;;11.43;;
18445;SDS011;9352;50.888;4.466;2023-08-17T13:09:13;19.95;;;11.77;;
18445;SDS011;9352;50.888;4.466;2023-08-17T13:11:41;28.05;;;11.95;;
18445;SDS011;9352;50.888;4.466;2023-08-17T13:14:07;21.88;;;10.98;;
18445;SDS011;9352;50.888;4.466;2023-08-17T13:16:36;20.45;;;11.30;;
18445;SDS011;9352;50.888;4.466;2023-08-17T13:19:03;24.55;;;12.15;;
18445;SDS011;9352;50.888;4.466;2023-08-17T13:21:30;23.50;;;12.55;;
18445;SDS011;9352;50.888;4.466;2023-08-17T13:23:57;22.70;;;11.18;;
18445;SDS011;9352;50.888;4.466;2023-08-17T13:26:24;23.38;;;11.88;;
18445;SDS011;9352;50.888;4.466;2023-08-17T13:28:51;25.30;;;12.40;;
18445;SDS011;9352;50.888;4.466;2023-08-17T13:31:18;24.85;;;13.75;;
18445;SDS011;9352;50.888;4.466;2023-08-17T13:33:46;19.15;;;12.07;;
18445;SDS011;9352;50.888;4.466;2023-08-17T13:36:13;23.77;;;12.85;;
18445;SDS011;9352;50.888;4.466;2023-08-17T13:38:40;21.08;;;12.13;;
18445;SDS011;9352;50.888;4.466;2023-08-17T13:41:07;22.48;;;12.30;;
18445;SDS011;9352;50.888;4.466;2023-08-17T13:43:33;25.38;;;13.68;;
18445;SDS011;9352;50.888;4.466;2023-08-17T13:46:01;20.85;;;11.60;;
18445;SDS011;9352;50.888;4.466;2023-08-17T13:48:28;21.63;;;12.00;;
18445;SDS011;9352;50.888;4.466;2023-08-17T13:50:56;27.27;;;11.05;;
18445;SDS011;9352;50.888;4.466;2023-08-17T13:53:23;15.90;;;11.40;;
18445;SDS011;9352;50.888;4.466;2023-08-17T13:55:50;21.02;;;10.18;;
18445;SDS011;9352;50.888;4.466;2023-08-17T13:58:17;20.67;;;10.70;;
18445;SDS011;9352;50.888;4.466;2023-08-17T14:00:43;18.92;;;11.10;;
18445;SDS011;9352;50.888;4.466;2023-08-17T14:03:10;15.93;;;10.77;;
18445;SDS011;9352;50.888;4.466;2023-08-17T14:05:37;19.70;;;11.55;;
18445;SDS011;9352;50.888;4.466;2023-08-17T14:08:06;21.38;;;11.65;;
18445;SDS011;9352;50.888;4.466;2023-08-17T14:10:36;22.85;;;11.30;;
18445;SDS011;9352;50.888;4.466;2023-08-17T14:13:02;22.70;;;10.32;;
18445;SDS011;9352;50.888;4.466;2023-08-17T14:15:30;16.20;;;10.63;;
18445;SDS011;9352;50.888;4.466;2023-08-17T14:17:56;19.95;;;11.13;;
18445;SDS011;9352;50.888;4.466;2023-08-17T14:20:26;17.67;;;10.05;;
18445;SDS011;9352;50.888;4.466;2023-08-17T14:22:53;16.63;;;10.68;;
18445;SDS011;9352;50.888;4.466;2023-08-17T14:25:22;18.10;;;10.52;;
18445;SDS011;9352;50.888;4.466;2023-08-17T14:27:48;15.43;;;10.02;;
18445;SDS011;9352;50.888;4.466;2023-08-17T14:30:15;17.80;;;10.90;;
18445;SDS011;9352;50.888;4.466;2023-08-17T14:32:42;15.18;;;11.18;;
18445;SDS011;9352;50.888;4.466;2023-08-17T14:35:09;17.08;;;10.75;;
18445;SDS011;9352;50.888;4.466;2023-08-17T14:37:36;19.05;;;12.52;;
18445;SDS011;9352;50.888;4.466;2023-08-17T14:40:03;17.98;;;12.88;;
18445;SDS011;9352;50.888;4.466;2023-08-17T14:42:32;19.75;;;12.52;;
18445;SDS011;9352;50.888;4.466;2023-08-17T14:44:59;17.95;;;11.68;;
18445;SDS011;9352;50.888;4.466;2023-08-17T14:47:26;17.40;;;11.38;;
18445;SDS011;9352;50.888;4.466;2023-08-17T14:49:53;18.45;;;11.13;;
18445;SDS011;9352;50.888;4.466;2023-08-17T14:52:21;18.95;;;10.82;;
18445;SDS011;9352;50.888;4.466;2023-08-17T14:54:48;17.92;;;10.57;;
18445;SDS011;9352;50.888;4.466;2023-08-17T14:57:14;17.38;;;9.95;;
18445;SDS011;9352;50.888;4.466;2023-08-17T14:59:43;15.45;;;9.95;;